Time;durP1;ratioP1;P1;durP2;ratioP2;P2;SDS_P1;SDS_P2;PMS_P1;PMS_P2;Temp;Humidity;BMP_temperature;BMP_pressure;BME280_temperature;BME280_humidity;BME280_pressure;Samples;Min_cycle;Max_cycle;Signal;HPM_P1;HPM_P2
2022/11/19 00:01:49;;;;;;;1.10;1.10;;;;;;;24.26;41.36;98464.94;1906943;73;38410;-50
2022/11/19 00:04:37;;;;;;;0.90;0.90;;;;;;;24.33;41.36;98477.02;1890959;74;28123;-52
2022/11/19 00:07:26;;;;;;;0.90;0.90;;;;;;;24.32;41.27;98480.31;1888660;75;27980;-50
2022/11/19 00:10:14;;;;;;;1.00;1.00;;;;;;;24.30;41.35;98477.55;1888614;75;28101;-50
2022/11/19 00:13:04;;;;;;;0.90;0.90;;;;;;;24.33;41.31;98478.39;1883390;75;28047;-48
2022/11/19 00:15:52;;;;;;;1.00;1.00;;;;;;;24.31;41.33;98475.93;1892266;74;27998;-52
2022/11/19 00:18:41;;;;;;;0.80;0.80;;;;;;;24.33;41.30;98475.65;1892436;74;28147;-48
2022/11/19 00:21:30;;;;;;;1.07;1.07;;;;;;;24.32;41.30;98474.81;1885716;75;28076;-51
2022/11/19 00:24:18;;;;;;;0.90;0.90;;;;;;;24.33;41.31;98470.16;1882637;75;28030;-52
2022/11/19 00:27:07;;;;;;;1.17;1.07;;;;;;;24.34;41.30;98476.73;1885747;75;35901;-51
2022/11/19 00:29:56;;;;;;;1.15;1.15;;;;;;;24.33;41.28;98468.79;1865797;75;28193;-51
2022/11/19 00:32:44;;;;;;;1.90;1.03;;;;;;;24.33;41.24;98467.41;1896600;74;28236;-48
2022/11/19 00:35:33;;;;;;;1.15;0.90;;;;;;;24.30;41.28;98467.41;1888549;75;28074;-53
2022/11/19 00:38:21;;;;;;;1.00;0.90;;;;;;;24.32;41.27;98473.45;1888724;75;28098;-48
2022/11/19 00:41:10;;;;;;;0.90;0.90;;;;;;;24.31;41.22;98470.44;1888722;75;28028;-49
2022/11/19 00:43:58;;;;;;;0.80;0.80;;;;;;;24.30;41.24;98466.58;1885920;75;28085;-50
2022/11/19 00:46:47;;;;;;;1.52;1.00;;;;;;;24.28;41.26;98464.11;1889935;74;28047;-49
2022/11/19 00:49:35;;;;;;;0.90;0.90;;;;;;;24.30;41.24;98460.55;1898927;75;28027;-50
2022/11/19 00:52:23;;;;;;;1.02;1.02;;;;;;;24.31;41.21;98456.72;1888485;75;27983;-50
2022/11/19 00:55:11;;;;;;;0.80;0.80;;;;;;;24.30;41.22;98452.85;1868953;75;28075;-51
2022/11/19 00:57:59;;;;;;;1.10;1.00;;;;;;;24.31;41.21;98451.77;1888080;74;28026;-51
2022/11/19 01:00:50;;;;;;;0.90;0.90;;;;;;;24.31;41.21;98450.40;1868207;75;28251;-50
2022/11/19 01:03:40;;;;;;;1.02;1.02;;;;;;;24.34;41.24;98449.30;1885093;75;28140;-50
2022/11/19 01:06:28;;;;;;;2.90;0.95;;;;;;;24.29;41.29;98445.19;1879219;75;28148;-49
2022/11/19 01:09:17;;;;;;;1.10;1.10;;;;;;;24.27;41.38;98444.61;1879992;75;28124;-50
2022/11/19 01:12:06;;;;;;;1.12;1.10;;;;;;;24.26;41.48;98438.03;1899916;75;28024;-49
2022/11/19 01:14:54;;;;;;;1.47;1.10;;;;;;;24.25;41.48;98437.77;1884735;75;28068;-47
2022/11/19 01:17:43;;;;;;;1.47;1.20;;;;;;;24.27;41.49;98435.58;1880509;75;30206;-47
2022/11/19 01:20:31;;;;;;;2.10;1.15;;;;;;;24.26;41.50;98440.77;1895397;75;28035;-48
2022/11/19 01:23:20;;;;;;;1.17;0.90;;;;;;;24.23;41.55;98433.08;1900969;75;28129;-50
2022/11/19 01:26:09;;;;;;;1.00;1.00;;;;;;;24.25;41.52;98433.08;1900800;75;28037;-52
2022/11/19 01:28:58;;;;;;;1.07;1.07;;;;;;;24.25;41.55;98433.66;1900971;75;28101;-46
2022/11/19 01:31:46;;;;;;;1.20;1.10;;;;;;;24.25;41.60;98429.54;1900824;75;28029;-49
2022/11/19 01:34:34;;;;;;;1.00;1.00;;;;;;;24.28;41.60;98433.09;1900919;75;28092;-47
2022/11/19 01:37:23;;;;;;;1.30;1.20;;;;;;;24.28;41.55;98434.47;1883194;75;28080;-48
2022/11/19 01:40:13;;;;;;;0.90;0.90;;;;;;;24.23;41.62;98428.42;1900409;75;38404;-49
2022/11/19 01:43:01;;;;;;;0.90;0.90;;;;;;;24.23;41.65;98428.42;1894092;73;27999;-49
2022/11/19 01:45:53;;;;;;;1.20;1.20;;;;;;;24.25;41.64;98430.91;1900880;75;28009;-48
2022/11/19 01:48:49;;;;;;;0.90;0.90;;;;;;;24.25;41.65;98424.84;1882116;75;28075;-49
2022/11/19 01:51:49;;;;;;;0.88;0.80;;;;;;;24.24;41.66;98421.84;1889152;75;28148;-52
2022/11/19 01:54:42;;;;;;;1.00;1.00;;;;;;;24.22;41.67;98414.44;1896135;75;28508;-51
2022/11/19 01:57:31;;;;;;;2.02;1.00;;;;;;;24.22;41.75;98411.70;1901041;75;28143;-47
2022/11/19 02:00:20;;;;;;;0.93;0.93;;;;;;;24.23;41.75;98418.81;1900323;75;28281;-48
2022/11/19 02:03:09;;;;;;;0.90;0.90;;;;;;;24.24;41.77;98411.41;1896653;75;28132;-49
2022/11/19 02:06:00;;;;;;;0.85;0.85;;;;;;;24.22;41.73;98408.95;1896911;75;28120;-50
2022/11/19 02:08:49;;;;;;;1.10;0.90;;;;;;;24.24;41.71;98413.61;1900790;75;28042;-48
2022/11/19 02:12:01;;;;;;;0.90;0.90;;;;;;;24.23;41.73;98416.07;1888862;75;28058;-49
2022/11/19 02:15:26;;;;;;;1.00;1.00;;;;;;;24.21;41.80;98419.64;1867542;75;28250;-48
2022/11/19 02:18:26;;;;;;;0.90;0.90;;;;;;;24.19;41.82;98404.53;1894081;73;28159;-46
2022/11/19 02:21:44;;;;;;;1.20;1.00;;;;;;;24.18;41.89;98405.65;1876172;75;27992;-50
2022/11/19 02:24:36;;;;;;;1.52;0.70;;;;;;;24.19;41.86;98399.05;1880595;75;28147;-48
2022/11/19 02:27:39;;;;;;;0.80;0.80;;;;;;;24.17;41.84;98397.95;1888732;75;28054;-49
2022/11/19 02:30:31;;;;;;;0.90;0.90;;;;;;;24.18;41.84;98389.98;1901003;75;28022;-49
2022/11/19 02:33:31;;;;;;;0.93;0.88;;;;;;;24.19;41.85;98393.02;1888795;75;28045;-50
2022/11/19 02:36:25;;;;;;;0.90;0.90;;;;;;;24.20;41.89;98397.97;1900972;75;28198;-48
2022/11/19 02:39:21;;;;;;;1.00;1.00;;;;;;;24.20;41.83;98404.25;1888803;75;28505;-49
2022/11/19 02:42:29;;;;;;;0.88;0.88;;;;;;;24.21;41.88;98397.69;1868936;75;28096;-50
2022/11/19 02:45:20;;;;;;;2.65;1.00;;;;;;;24.22;41.79;98396.60;1855096;76;28108;-49
2022/11/19 02:48:12;;;;;;;1.00;1.00;;;;;;;24.20;41.82;98402.88;1896017;75;28448;-47
2022/11/19 02:51:03;;;;;;;0.90;0.90;;;;;;;24.20;41.84;98403.45;1888805;75;28072;-47
2022/11/19 02:53:53;;;;;;;0.95;0.95;;;;;;;24.20;41.86;98401.51;1888883;75;28142;-48
2022/11/19 02:56:54;;;;;;;1.40;1.00;;;;;;;24.24;41.88;98402.64;1888866;75;28076;-50
2022/11/19 03:06:22;;;;;;;1.00;0.82;;;;;;;24.18;41.96;98413.31;1889797;73;28060;-48
2022/11/19 03:09:11;;;;;;;0.85;0.85;;;;;;;24.15;42.06;98411.67;1910692;74;28120;-52
2022/11/19 03:12:03;;;;;;;1.10;1.10;;;;;;;24.17;42.05;98418.53;1910661;74;28481;-52
2022/11/19 03:18:19;;;;;;;0.80;0.80;;;;;;;24.19;42.00;98419.09;1855068;74;28141;-50
2022/11/19 03:21:17;;;;;;;2.75;0.98;;;;;;;24.20;42.01;98422.09;1891479;74;28170;-50
2022/11/19 03:24:08;;;;;;;0.90;0.90;;;;;;;24.18;42.05;98422.91;1899197;73;28085;-49
2022/11/19 03:27:19;;;;;;;0.90;0.90;;;;;;;24.20;42.02;98424.03;1910555;74;27994;-48
2022/11/19 03:30:10;;;;;;;1.15;1.10;;;;;;;24.18;42.01;98420.17;1910496;74;27985;-46
2022/11/19 03:33:04;;;;;;;1.00;1.00;;;;;;;24.22;42.00;98424.05;1910553;74;28094;-48
2022/11/19 03:35:56;;;;;;;1.05;1.05;;;;;;;24.20;42.01;98417.17;1893157;74;28068;-51
2022/11/19 03:38:47;;;;;;;1.10;1.10;;;;;;;24.23;41.90;98424.30;1878023;76;28563;-52
2022/11/19 03:41:38;;;;;;;1.82;0.90;;;;;;;24.25;41.96;98424.84;1916009;73;28270;-47
2022/11/19 03:44:32;;;;;;;0.90;0.90;;;;;;;24.26;41.95;98424.31;1909949;74;28112;-47
2022/11/19 03:47:24;;;;;;;0.80;0.80;;;;;;;24.26;41.99;98421.02;1910772;74;28093;-50
2022/11/19 03:50:25;;;;;;;1.10;1.00;;;;;;;24.26;41.97;98414.70;1910546;74;28050;-49
2022/11/19 03:53:13;;;;;;;0.80;0.80;;;;;;;24.23;42.07;98424.84;1910534;74;28017;-48
2022/11/19 03:56:08;;;;;;;0.80;0.80;;;;;;;24.21;42.13;98426.50;1910336;74;28045;-49
2022/11/19 03:58:59;;;;;;;0.90;0.90;;;;;;;24.24;42.10;98434.73;1910582;74;28006;-52
2022/11/19 04:01:50;;;;;;;0.80;0.80;;;;;;;24.27;42.01;98439.70;1892791;74;28104;-50
2022/11/19 04:04:39;;;;;;;0.80;0.80;;;;;;;24.27;42.05;98447.92;1910612;74;37208;-49
2022/11/19 04:07:27;;;;;;;1.37;1.00;;;;;;;24.25;42.06;98448.17;1886133;74;28270;-49
2022/11/19 04:10:16;;;;;;;0.98;0.80;;;;;;;24.28;42.05;98451.77;1881194;75;28108;-47
2022/11/19 04:13:05;;;;;;;0.90;0.90;;;;;;;24.29;41.96;98453.97;1882748;75;28059;-50
2022/11/19 04:15:53;;;;;;;0.90;0.80;;;;;;;24.26;41.97;98460.81;1900922;75;28083;-53
2022/11/19 04:18:42;;;;;;;2.10;1.05;;;;;;;24.29;41.93;98460.83;1898584;73;28188;-49
2022/11/19 04:21:30;;;;;;;0.78;0.78;;;;;;;24.25;41.97;98459.16;1885921;73;28233;-51
2022/11/19 04:24:19;;;;;;;0.80;0.80;;;;;;;24.25;41.97;98457.78;1881556;75;28545;-51
2022/11/19 04:27:07;;;;;;;0.90;0.90;;;;;;;24.27;41.96;98453.41;1901287;75;28060;-50
2022/11/19 04:29:55;;;;;;;0.93;0.90;;;;;;;24.28;41.91;98455.88;1900129;75;28207;-52
2022/11/19 04:32:43;;;;;;;0.90;0.90;;;;;;;24.25;41.98;98459.16;1884011;75;28037;-50
2022/11/19 04:35:33;;;;;;;1.10;1.00;;;;;;;24.29;41.90;98469.89;1900891;75;28125;-49
2022/11/19 04:38:21;;;;;;;1.40;0.90;;;;;;;24.26;41.92;98470.97;1895046;75;28191;-49
2022/11/19 04:41:09;;;;;;;0.82;0.82;;;;;;;24.26;41.99;98469.59;1889264;75;28077;-47
2022/11/19 04:43:58;;;;;;;0.80;0.80;;;;;;;24.28;42.03;98475.09;1868543;76;28179;-47
2022/11/19 04:46:46;;;;;;;0.80;0.80;;;;;;;24.29;41.97;98480.87;1889564;75;28257;-46
2022/11/19 04:49:34;;;;;;;1.00;1.00;;;;;;;24.25;41.98;98470.13;1886723;73;29474;-48
2022/11/19 04:52:23;;;;;;;0.70;0.70;;;;;;;24.27;42.03;98473.42;1894975;73;28029;-48
2022/11/19 04:55:11;;;;;;;0.90;0.90;;;;;;;24.29;42.04;98484.16;1882909;75;28134;-52
2022/11/19 04:58:00;;;;;;;0.75;0.75;;;;;;;24.28;42.04;98478.38;1891807;75;28165;-49
2022/11/19 05:00:49;;;;;;;0.88;0.88;;;;;;;24.27;42.01;98477.55;1889736;75;28004;-51
2022/11/19 05:03:37;;;;;;;1.07;0.90;;;;;;;24.26;42.01;98484.14;1886796;75;28061;-49
2022/11/19 05:06:26;;;;;;;1.10;0.85;;;;;;;24.22;42.09;98489.91;1881451;75;28089;-48
2022/11/19 05:09:14;;;;;;;0.95;0.93;;;;;;;24.24;42.10;98484.97;1894785;75;28155;-48
2022/11/19 05:12:03;;;;;;;1.00;1.00;;;;;;;24.25;42.08;98487.97;1868827;75;28130;-49
2022/11/19 05:14:52;;;;;;;0.78;0.78;;;;;;;24.24;42.07;98483.59;1900890;75;28029;-49
2022/11/19 05:17:40;;;;;;;0.90;0.90;;;;;;;24.26;42.08;98483.31;1877907;75;28063;-49
2022/11/19 05:20:29;;;;;;;0.90;0.90;;;;;;;24.25;42.09;98482.48;1900846;75;27999;-50
2022/11/19 05:23:17;;;;;;;0.72;0.72;;;;;;;24.26;42.10;98483.31;1901134;75;28029;-48
2022/11/19 05:26:06;;;;;;;1.00;1.00;;;;;;;24.25;42.10;98489.34;1883186;75;28017;-49
2022/11/19 05:28:54;;;;;;;1.60;1.10;;;;;;;24.26;42.14;98484.69;1900985;75;28024;-46
2022/11/19 05:31:42;;;;;;;0.82;0.82;;;;;;;24.25;42.16;98490.72;1900805;75;28452;-51
2022/11/19 05:34:30;;;;;;;1.02;0.93;;;;;;;24.25;42.11;98492.66;1901170;75;28090;-49
2022/11/19 05:37:19;;;;;;;0.78;0.78;;;;;;;24.22;42.14;98491.27;1881399;75;28059;-48
2022/11/19 05:40:09;;;;;;;0.80;0.80;;;;;;;24.27;42.10;98491.27;1878295;75;27999;-52
2022/11/19 05:43:01;;;;;;;0.80;0.80;;;;;;;24.25;42.10;98497.58;1901197;74;27994;-48
2022/11/19 05:45:49;;;;;;;0.80;0.80;;;;;;;24.27;42.08;98492.64;1901031;75;28058;-50
2022/11/19 05:48:37;;;;;;;0.80;0.80;;;;;;;24.25;42.14;98494.03;1901156;75;28092;-50
2022/11/19 05:51:26;;;;;;;1.05;0.80;;;;;;;24.25;42.16;98500.89;1878026;75;28010;-48
2022/11/19 05:54:14;;;;;;;0.93;0.93;;;;;;;24.23;42.20;98502.52;1901251;75;28069;-50
2022/11/19 05:57:04;;;;;;;0.93;0.93;;;;;;;24.23;42.12;98495.66;1901135;75;27997;-48
2022/11/19 05:59:53;;;;;;;0.90;0.90;;;;;;;24.25;42.18;98492.66;1897073;73;28116;-49
2022/11/19 06:02:41;;;;;;;1.15;1.00;;;;;;;24.24;42.14;98494.57;1888814;73;28091;-50
2022/11/19 06:05:30;;;;;;;0.80;0.80;;;;;;;24.26;42.12;98498.41;1904865;74;38326;-51
2022/11/19 06:08:19;;;;;;;0.90;0.90;;;;;;;24.27;42.06;98506.94;1883796;75;28066;-51
2022/11/19 06:11:46;;;;;;;0.80;0.80;;;;;;;24.26;42.09;98506.09;1885248;74;28014;-52
2022/11/19 06:13:57;;;;;;;0.90;0.90;;;;;;;24.25;42.10;98501.69;1887484;74;28263;-49
2022/11/19 06:16:46;;;;;;;1.42;0.90;;;;;;;24.24;42.13;98506.09;1888802;74;28121;-48
2022/11/19 06:19:34;;;;;;;0.80;0.80;;;;;;;24.22;42.19;98505.00;1892726;74;28077;-49
2022/11/19 06:22:22;;;;;;;0.72;0.72;;;;;;;24.21;42.25;98506.61;1910730;74;28029;-48
2022/11/19 06:25:11;;;;;;;0.80;0.80;;;;;;;24.24;42.19;98508.83;1910672;74;28080;-47
2022/11/19 06:27:59;;;;;;;0.70;0.70;;;;;;;24.24;42.13;98502.80;1910406;74;28127;-49
2022/11/19 06:30:47;;;;;;;0.82;0.82;;;;;;;24.25;42.10;98503.06;1890810;74;28060;-48
2022/11/19 06:33:35;;;;;;;0.80;0.80;;;;;;;24.24;42.07;98505.55;1910719;74;28056;-52
2022/11/19 06:36:24;;;;;;;0.82;0.80;;;;;;;24.25;42.04;98507.18;1907919;74;28096;-52
2022/11/19 06:39:13;;;;;;;0.98;0.98;;;;;;;24.24;42.06;98498.69;1927829;73;28558;-52
2022/11/19 06:42:34;;;;;;;0.80;0.80;;;;;;;24.23;42.08;98501.14;1933970;73;28061;-47
2022/11/19 06:44:51;;;;;;;0.80;0.80;;;;;;;24.25;42.04;98499.52;1910291;74;28104;-51
2022/11/19 06:47:41;;;;;;;0.80;0.80;;;;;;;24.23;42.07;98498.94;1887602;74;28149;-48
2022/11/19 06:50:31;;;;;;;0.80;0.80;;;;;;;24.28;42.03;98503.91;1910019;73;28058;-50
2022/11/19 06:53:19;;;;;;;0.85;0.85;;;;;;;24.28;41.98;98508.02;1888683;74;28060;-48
2022/11/19 06:56:08;;;;;;;0.90;0.90;;;;;;;24.28;42.03;98508.56;1910490;74;28098;-50
2022/11/19 06:58:58;;;;;;;1.10;0.90;;;;;;;24.24;42.04;98509.66;1910638;74;28029;-50
2022/11/19 07:01:46;;;;;;;1.22;0.95;;;;;;;24.25;42.12;98509.92;1894228;74;28053;-53
2022/11/19 07:04:35;;;;;;;0.70;0.70;;;;;;;24.23;42.09;98517.61;1910599;74;28481;-51
2022/11/19 07:07:23;;;;;;;0.82;0.82;;;;;;;24.23;42.13;98517.61;1910678;74;32035;-51
2022/11/19 07:10:11;;;;;;;0.80;0.80;;;;;;;24.17;42.12;98510.46;1910413;74;28037;-53
2022/11/19 07:13:00;;;;;;;0.90;0.90;;;;;;;24.25;42.10;98523.64;1891359;74;27991;-48
2022/11/19 07:15:48;;;;;;;0.90;0.90;;;;;;;24.21;42.13;98520.34;1886764;74;28019;-50
2022/11/19 07:18:37;;;;;;;0.70;0.70;;;;;;;24.21;42.17;98523.08;1929551;73;28101;-50
2022/11/19 07:21:26;;;;;;;0.90;0.90;;;;;;;24.23;42.08;98529.13;1891832;74;28236;-49
2022/11/19 07:24:17;;;;;;;1.10;0.80;;;;;;;24.18;42.08;98519.52;1890481;74;27990;-48
2022/11/19 07:27:05;;;;;;;1.20;1.10;;;;;;;24.25;42.02;98538.73;1909964;74;28078;-49
2022/11/19 07:29:54;;;;;;;2.10;1.00;;;;;;;24.25;40.95;98538.73;1910478;74;28216;-51
2022/11/19 07:32:42;;;;;;;0.95;0.95;;;;;;;24.28;40.35;98548.36;1910615;74;28040;-50
2022/11/19 07:35:30;;;;;;;0.95;0.95;;;;;;;24.32;40.44;98542.63;1893894;74;27994;-52
2022/11/19 07:38:19;;;;;;;1.10;1.10;;;;;;;24.29;40.16;98546.73;1910548;74;30036;-53
2022/11/19 07:42:47;;;;;;;1.02;0.93;;;;;;;24.25;39.92;98542.05;1910643;74;28194;-52
2022/11/19 07:43:57;;;;;;;1.30;0.90;;;;;;;24.24;40.27;98549.45;1895463;74;28031;-49
2022/11/19 07:46:46;;;;;;;2.10;1.00;;;;;;;24.24;40.51;98555.48;1898337;74;28068;-54
2022/11/19 07:49:34;;;;;;;1.00;1.00;;;;;;;24.27;40.60;98554.95;1905897;74;28045;-49
2022/11/19 07:52:23;;;;;;;0.80;0.80;;;;;;;24.26;40.66;98559.61;1897423;74;28067;-48
2022/11/19 07:55:11;;;;;;;1.02;1.02;;;;;;;24.27;40.64;98564.56;1891933;74;30996;-49
2022/11/19 07:57:59;;;;;;;0.80;0.80;;;;;;;24.30;40.56;98563.47;1910587;74;28072;-51
2022/11/19 08:00:48;;;;;;;0.80;0.80;;;;;;;24.28;40.57;98571.15;1908416;73;27874;-52
2022/11/19 08:03:37;;;;;;;0.90;0.90;;;;;;;24.26;40.64;98569.22;1914362;73;28026;-48
2022/11/19 08:06:28;;;;;;;0.80;0.80;;;;;;;24.25;40.75;98567.55;1877573;76;28116;-47
2022/11/19 08:09:17;;;;;;;0.88;0.88;;;;;;;24.19;40.79;98560.41;1907244;74;28196;-48
2022/11/19 08:12:06;;;;;;;0.70;0.70;;;;;;;24.16;40.83;98562.30;1908248;74;28033;-50
2022/11/19 08:14:55;;;;;;;0.82;0.82;;;;;;;24.15;40.88;98570.27;1892206;74;28173;-47
2022/11/19 08:20:49;;;;;;;0.90;0.85;;;;;;;24.14;40.92;98574.64;1910318;74;38963;-47
2022/11/19 08:23:39;;;;;;;0.88;0.88;;;;;;;24.11;41.00;98577.36;1906879;74;28601;-46
2022/11/19 08:26:27;;;;;;;0.72;0.72;;;;;;;24.11;41.00;98579.31;1896270;74;28069;-52
2022/11/19 08:29:18;;;;;;;1.60;0.80;;;;;;;24.11;41.04;98576.56;1891053;74;28545;-49
2022/11/19 08:32:07;;;;;;;0.98;0.95;;;;;;;24.12;40.99;98576.28;1910479;74;28092;-46
2022/11/19 08:34:55;;;;;;;0.95;0.95;;;;;;;24.11;41.04;98573.82;1910249;74;28082;-47
2022/11/19 08:37:43;;;;;;;0.93;0.90;;;;;;;24.09;41.06;98572.69;1910411;74;28189;-48
2022/11/19 08:40:31;;;;;;;1.00;1.00;;;;;;;24.11;41.06;98577.94;1890199;74;28487;-47
2022/11/19 08:43:20;;;;;;;0.93;0.93;;;;;;;24.11;40.36;98573.25;1906821;74;28072;-48
2022/11/19 08:46:09;;;;;;;1.55;1.45;;;;;;;24.17;40.08;98579.06;1905774;74;28070;-47
2022/11/19 08:48:58;;;;;;;1.12;1.02;;;;;;;24.13;39.37;98575.20;1894890;74;28080;-48
2022/11/19 08:51:46;;;;;;;1.00;1.00;;;;;;;24.12;39.75;98579.57;1888903;74;28072;-47
2022/11/19 08:54:34;;;;;;;1.50;0.90;;;;;;;24.11;39.73;98582.85;1910399;74;28125;-45
2022/11/19 08:57:24;;;;;;;1.87;1.00;;;;;;;24.11;39.81;98575.99;1910195;74;28143;-45
2022/11/19 09:00:13;;;;;;;2.30;1.00;;;;;;;24.10;40.07;98570.24;1877710;76;34119;-46
2022/11/19 09:03:01;;;;;;;1.10;1.00;;;;;;;24.15;40.29;98574.93;1898892;74;28137;-48
2022/11/19 09:05:50;;;;;;;1.75;1.00;;;;;;;24.11;40.44;98575.99;1904230;74;27978;-52
2022/11/19 09:08:40;;;;;;;0.90;0.90;;;;;;;24.10;40.52;98578.47;1910259;74;28579;-47
2022/11/19 09:11:28;;;;;;;1.20;0.82;;;;;;;24.05;40.55;98568.27;1877698;76;28126;-50
2022/11/19 09:14:17;;;;;;;0.90;0.90;;;;;;;24.10;40.63;98573.53;1892371;74;28198;-47
2022/11/19 09:17:05;;;;;;;1.12;1.07;;;;;;;24.10;40.66;98578.47;1900487;75;27991;-48
2022/11/19 09:19:54;;;;;;;1.25;0.90;;;;;;;24.10;40.68;98574.36;1880461;74;28145;-48
2022/11/19 09:22:42;;;;;;;1.02;0.95;;;;;;;24.10;40.69;98577.64;1876269;75;28038;-48
2022/11/19 09:25:31;;;;;;;1.00;0.90;;;;;;;24.10;40.74;98576.27;1914456;73;27942;-47
2022/11/19 09:28:20;;;;;;;1.00;0.90;;;;;;;24.09;40.77;98572.69;1900820;75;28094;-48
2022/11/19 09:31:14;;;;;;;1.30;1.00;;;;;;;24.08;40.78;98586.15;1888548;75;28035;-48
2022/11/19 09:34:03;;;;;;;1.62;1.07;;;;;;;24.09;40.86;98584.20;1900772;75;28059;-47
2022/11/19 09:36:51;;;;;;;1.17;1.10;;;;;;;24.05;40.87;98581.16;1900960;75;28166;-51
2022/11/19 09:39:39;;;;;;;1.15;1.10;;;;;;;24.05;40.90;98579.78;1887591;75;38462;-46
2022/11/19 09:42:40;;;;;;;1.10;1.00;;;;;;;24.03;40.91;98580.59;1882111;75;28028;-45
2022/11/19 09:45:40;;;;;;;0.93;0.93;;;;;;;24.03;40.94;98586.09;1869961;75;28036;-49
2022/11/19 09:48:38;;;;;;;1.30;1.20;;;;;;;24.00;40.98;98591.55;1888419;75;28085;-50
2022/11/19 09:51:32;;;;;;;0.90;0.90;;;;;;;23.98;41.07;98599.77;1888412;75;28526;-46
2022/11/19 09:54:22;;;;;;;0.90;0.90;;;;;;;23.96;41.10;98607.44;1878184;75;28236;-48
2022/11/19 09:57:13;;;;;;;1.07;0.90;;;;;;;23.97;41.10;98611.81;1888729;75;28138;-47
2022/11/19 10:00:03;;;;;;;0.70;0.70;;;;;;;23.97;41.19;98615.39;1869881;75;28224;-47
2022/11/19 10:02:55;;;;;;;0.90;0.90;;;;;;;23.97;41.20;98614.56;1900880;75;28154;-48
2022/11/19 10:06:12;;;;;;;1.90;0.90;;;;;;;23.98;41.23;98603.88;1900999;75;27971;-46
2022/11/19 10:09:09;;;;;;;0.85;0.85;;;;;;;24.00;41.15;98606.64;1900854;75;28018;-48
2022/11/19 10:12:06;;;;;;;0.90;0.90;;;;;;;23.98;41.23;98602.52;1885482;75;28067;-47
2022/11/19 10:15:30;;;;;;;1.05;1.05;;;;;;;23.96;41.22;98604.16;1885612;75;28046;-46
2022/11/19 10:18:21;;;;;;;1.00;1.00;;;;;;;23.95;41.22;98608.52;1901085;75;28057;-50
2022/11/19 10:21:15;;;;;;;1.72;0.90;;;;;;;23.91;41.32;98606.03;1900658;75;28037;-50
2022/11/19 10:24:09;;;;;;;0.90;0.90;;;;;;;23.93;41.30;98601.10;1891118;75;28149;-46
2022/11/19 10:27:08;;;;;;;1.10;1.00;;;;;;;23.96;41.24;98603.33;1894599;75;27986;-47
2022/11/19 10:29:57;;;;;;;0.82;0.82;;;;;;;23.93;41.25;98586.02;1900929;75;28040;-48
2022/11/19 10:32:57;;;;;;;1.27;0.80;;;;;;;23.95;41.32;98593.43;1883175;75;28286;-47
2022/11/19 10:35:48;;;;;;;1.15;0.72;;;;;;;23.94;41.26;98578.88;1900753;73;31302;-47
2022/11/19 10:38:42;;;;;;;1.65;0.90;;;;;;;23.93;41.31;98573.67;1891956;75;28264;-48
2022/11/19 10:41:39;;;;;;;0.80;0.80;;;;;;;23.96;41.33;98577.27;1893063;75;28098;-50
2022/11/19 10:44:39;;;;;;;1.30;0.90;;;;;;;23.95;41.31;98576.44;1900680;75;28034;-50
2022/11/19 10:47:50;;;;;;;1.22;1.10;;;;;;;23.95;41.23;98575.06;1886374;75;28034;-47
2022/11/19 10:50:39;;;;;;;0.90;0.90;;;;;;;23.95;41.23;98568.20;1885042;75;28056;-50
2022/11/19 10:53:35;;;;;;;0.90;0.90;;;;;;;23.94;41.21;98565.16;1879572;75;31033;-50
2022/11/19 10:56:38;;;;;;;0.90;0.90;;;;;;;23.94;41.24;98561.63;1893862;75;31072;-46
2022/11/19 10:59:29;;;;;;;0.87;0.77;;;;;;;23.94;41.21;98562.42;1889180;75;28066;-47
2022/11/19 11:02:39;;;;;;;0.70;0.70;;;;;;;23.95;41.26;98551.74;1886559;75;27983;-46
2022/11/19 11:05:28;;;;;;;0.80;0.80;;;;;;;23.95;41.22;98545.42;1884008;75;28143;-46
2022/11/19 11:08:17;;;;;;;1.02;1.00;;;;;;;23.93;41.26;98538.02;1879706;73;28046;-49
2022/11/19 11:11:05;;;;;;;0.70;0.70;;;;;;;23.94;41.22;98533.62;1922460;73;28017;-47
2022/11/19 11:17:01;;;;;;;0.70;0.70;;;;;;;23.96;41.19;98532.00;1899044;75;28205;-48
2022/11/19 11:20:17;;;;;;;0.90;0.90;;;;;;;23.96;41.17;98523.77;1885498;75;28022;-49
2022/11/19 11:23:21;;;;;;;1.17;1.10;;;;;;;23.96;41.16;98532.00;1886825;75;28049;-49
2022/11/19 11:26:12;;;;;;;1.10;0.85;;;;;;;23.92;41.23;98527.58;1884477;75;28211;-48
2022/11/19 11:29:07;;;;;;;2.37;1.00;;;;;;;23.92;41.20;98524.03;1900724;75;28098;-46
2022/11/19 11:31:55;;;;;;;1.02;0.82;;;;;;;23.92;41.26;98524.03;1894712;75;28194;-51
2022/11/19 11:34:44;;;;;;;0.98;0.98;;;;;;;23.94;41.22;98518.53;1889852;75;28087;-47
2022/11/19 11:37:33;;;;;;;0.90;0.90;;;;;;;23.94;41.15;98517.73;1901034;75;28124;-46
2022/11/19 11:40:23;;;;;;;1.05;0.80;;;;;;;23.94;41.12;98516.36;1868070;76;28159;-46
2022/11/19 11:43:14;;;;;;;1.47;0.88;;;;;;;23.94;41.13;98508.94;1895006;75;28041;-46
2022/11/19 11:46:05;;;;;;;0.72;0.72;;;;;;;23.95;41.18;98508.39;1901051;75;28066;-48
2022/11/19 11:48:53;;;;;;;1.10;1.00;;;;;;;23.94;41.09;98504.02;1884565;75;28039;-52
2022/11/19 11:51:42;;;;;;;0.97;0.90;;;;;;;23.94;41.10;98502.65;1900876;75;28130;-53
2022/11/19 11:54:30;;;;;;;1.55;1.02;;;;;;;23.93;41.12;98499.07;1874870;75;28606;-48
2022/11/19 11:57:21;;;;;;;0.88;0.88;;;;;;;23.92;41.08;98492.49;1900927;75;28090;-48
2022/11/19 12:00:29;;;;;;;1.10;1.00;;;;;;;23.91;41.09;98490.83;1883281;75;28066;-46
2022/11/19 12:03:20;;;;;;;0.90;0.90;;;;;;;23.90;41.12;98492.73;1882131;75;28172;-45
2022/11/19 12:06:11;;;;;;;0.72;0.72;;;;;;;23.87;41.15;98486.98;1900980;75;28055;-47
2022/11/19 12:09:28;;;;;;;1.10;0.90;;;;;;;23.86;41.15;98497.66;1901152;75;28030;-47
2022/11/19 12:12:34;;;;;;;0.70;0.70;;;;;;;23.86;41.18;98493.55;1900916;75;28131;-46
2022/11/19 12:15:28;;;;;;;0.70;0.70;;;;;;;23.85;41.21;98498.20;1901095;74;28160;-46
2022/11/19 12:18:40;;;;;;;0.83;0.83;;;;;;;23.84;41.16;98499.30;1910414;74;28061;-47
2022/11/19 12:21:38;;;;;;;0.80;0.80;;;;;;;23.85;41.20;98497.39;1896018;74;28052;-49
2022/11/19 12:24:47;;;;;;;1.12;0.80;;;;;;;23.83;41.20;98492.16;1918348;73;28043;-45
2022/11/19 12:27:59;;;;;;;0.80;0.80;;;;;;;23.85;41.22;98502.88;1877815;76;28122;-47
2022/11/19 12:30:51;;;;;;;0.90;0.90;;;;;;;23.83;41.20;98494.06;1890496;74;27969;-46
2022/11/19 12:33:45;;;;;;;0.90;0.90;;;;;;;23.81;41.22;98499.00;1910140;74;27982;-47
2022/11/19 12:36:45;;;;;;;1.05;0.80;;;;;;;23.81;41.21;98501.73;1904171;73;28207;-45
2022/11/19 12:39:39;;;;;;;0.90;0.90;;;;;;;23.81;41.17;98499.83;1908726;73;28043;-46
2022/11/19 12:42:33;;;;;;;1.00;1.00;;;;;;;23.82;41.21;98510.26;1894285;74;28039;-47
2022/11/19 12:45:35;;;;;;;0.73;0.73;;;;;;;23.83;41.14;98498.18;1889645;74;28127;-46
2022/11/19 12:48:43;;;;;;;1.83;0.93;;;;;;;23.82;41.12;98489.69;1910271;74;28643;-47
2022/11/19 12:51:57;;;;;;;0.90;0.90;;;;;;;23.82;41.13;98486.41;1850930;77;28282;-48
2022/11/19 12:54:58;;;;;;;1.07;1.07;;;;;;;23.79;41.07;98499.81;1873932;76;28183;-47
2022/11/19 12:57:58;;;;;;;1.80;0.93;;;;;;;23.75;41.18;98502.81;1838508;77;28279;-46
2022/11/19 13:01:02;;;;;;;0.93;0.93;;;;;;;23.79;41.18;98485.56;1840180;77;28214;-50
2022/11/19 13:04:11;;;;;;;0.85;0.85;;;;;;;23.77;41.10;98492.41;1873941;76;28058;-50
2022/11/19 13:07:03;;;;;;;1.15;1.05;;;;;;;23.77;41.08;98498.72;1841777;77;28322;-46
2022/11/19 13:09:54;;;;;;;0.85;0.85;;;;;;;23.75;41.16;98496.80;1824136;78;28301;-45
2022/11/19 13:12:45;;;;;;;0.90;0.90;;;;;;;23.77;41.04;98494.61;1850730;77;32163;-49
2022/11/19 13:15:40;;;;;;;0.70;0.70;;;;;;;23.78;41.09;98498.18;1859846;76;28161;-51
2022/11/19 13:18:31;;;;;;;0.80;0.80;;;;;;;23.78;41.07;98495.44;1855545;76;28255;-51
2022/11/19 13:21:32;;;;;;;1.52;1.00;;;;;;;23.78;41.03;98503.66;1835987;77;28228;-46
2022/11/19 13:24:26;;;;;;;1.40;1.00;;;;;;;23.79;41.03;98501.19;1828860;77;28282;-46
2022/11/19 13:27:18;;;;;;;1.55;1.05;;;;;;;23.69;41.01;98492.36;1855209;77;28309;-45
2022/11/19 13:30:32;;;;;;;1.02;1.02;;;;;;;23.77;41.03;98494.61;1855231;77;28734;-46
2022/11/19 13:33:20;;;;;;;1.00;1.00;;;;;;;23.78;40.99;98499.55;1850202;77;28317;-47
2022/11/19 13:36:28;;;;;;;0.90;0.90;;;;;;;23.76;41.01;98499.80;1850584;77;28211;-46
2022/11/19 13:39:22;;;;;;;0.90;0.90;;;;;;;23.76;40.99;98501.17;1837420;77;28309;-49
2022/11/19 13:45:19;;;;;;;0.85;0.78;;;;;;;23.73;41.00;98513.23;1852436;77;28211;-49
2022/11/19 13:48:23;;;;;;;1.00;1.00;;;;;;;23.73;41.04;98511.86;1853022;77;28206;-52
2022/11/19 13:51:19;;;;;;;1.07;0.95;;;;;;;23.74;40.98;98501.98;1852779;77;28214;-45